Metar z pełnej godziny Komunikat METAR ze strony awiacja.imgw.pl Metar G00 EPBY METAR EPBY 240500Z 20008KT 170V240 5000 -RA BR FEW010 BKN031 01/M00 Q1019 =